createdAt,value
2022-09-12T00:01:04.564Z,15.00
2022-09-12T00:03:53.820Z,15.04
2022-09-12T00:06:43.224Z,15.02
2022-09-12T00:09:33.007Z,15.06
2022-09-12T00:12:21.466Z,15.01
2022-09-12T00:15:11.268Z,15.00
2022-09-12T00:17:59.699Z,14.93
2022-09-12T00:20:48.532Z,14.93
2022-09-12T00:23:37.000Z,14.87
2022-09-12T00:26:26.948Z,14.82
2022-09-12T00:29:17.186Z,14.85
2022-09-12T00:32:05.790Z,14.86
2022-09-12T00:34:54.203Z,14.82
2022-09-12T00:37:42.670Z,14.79
2022-09-12T00:40:31.112Z,14.74
2022-09-12T00:46:45.492Z,14.68
2022-09-12T00:49:35.615Z,14.71
2022-09-12T00:52:28.034Z,14.69
2022-09-12T00:55:18.393Z,14.79
2022-09-12T00:58:10.592Z,14.76
2022-09-12T01:00:59.995Z,14.72
2022-09-12T01:03:49.883Z,14.71
2022-09-12T01:06:41.218Z,14.90
2022-09-12T01:09:29.660Z,14.79
2022-09-12T01:12:18.698Z,14.89
2022-09-12T01:15:07.947Z,14.88
2022-09-12T01:18:08.702Z,14.85
2022-09-12T01:21:09.835Z,14.67
2022-09-12T01:24:24.779Z,14.67
2022-09-12T01:27:39.210Z,14.77
2022-09-12T01:30:43.691Z,14.89
2022-09-12T01:33:52.366Z,14.84
2022-09-12T01:36:48.504Z,14.80
2022-09-12T01:39:42.319Z,14.80
2022-09-12T01:42:35.001Z,14.76
2022-09-12T01:45:29.121Z,14.79
2022-09-12T01:48:21.240Z,14.55
2022-09-12T01:51:14.811Z,14.62
2022-09-12T01:54:07.819Z,14.48
2022-09-12T01:56:58.398Z,14.41
2022-09-12T01:59:49.563Z,14.37
2022-09-12T02:02:40.492Z,14.36
2022-09-12T02:05:33.655Z,14.36
2022-09-12T02:08:27.095Z,14.28
2022-09-12T02:11:15.548Z,14.28
2022-09-12T02:14:07.294Z,14.12
2022-09-12T02:16:59.767Z,14.10
2022-09-12T02:19:51.534Z,14.10
2022-09-12T02:22:42.701Z,14.00
2022-09-12T02:25:31.651Z,13.97
2022-09-12T02:28:24.536Z,13.97
2022-09-12T02:31:18.268Z,13.93
2022-09-12T02:34:11.707Z,13.90
2022-09-12T02:37:07.518Z,13.89
2022-09-12T02:39:57.797Z,13.90
2022-09-12T02:42:46.609Z,13.83
2022-09-12T02:45:35.922Z,13.88
2022-09-12T02:48:27.553Z,13.83
2022-09-12T02:51:18.290Z,13.80
2022-09-12T02:54:10.350Z,13.78
2022-09-12T02:57:00.308Z,13.83
2022-09-12T02:59:49.636Z,13.78
2022-09-12T03:02:53.907Z,13.68
2022-09-12T03:05:48.235Z,12.95
2022-09-12T03:08:51.272Z,13.54
2022-09-12T03:12:03.931Z,13.42
2022-09-12T03:15:11.470Z,13.51
2022-09-12T03:18:07.466Z,13.03
2022-09-12T03:21:03.327Z,13.40
2022-09-12T03:24:03.654Z,13.33
2022-09-12T03:26:56.215Z,13.36
2022-09-12T03:29:47.800Z,13.40
2022-09-12T03:32:44.234Z,13.36
2022-09-12T03:35:32.681Z,13.18
2022-09-12T03:38:21.287Z,13.28
2022-09-12T03:41:09.729Z,13.11
2022-09-12T03:43:58.157Z,13.07
2022-09-12T03:46:48.035Z,13.14
2022-09-12T03:49:36.435Z,13.06
2022-09-12T03:52:25.025Z,13.16
2022-09-12T03:55:13.443Z,13.23
2022-09-12T03:58:01.912Z,13.27
2022-09-12T04:00:50.572Z,13.23
2022-09-12T04:03:41.082Z,13.04
2022-09-12T04:06:29.711Z,12.91
2022-09-12T04:09:18.188Z,12.91
2022-09-12T04:12:07.922Z,13.00
2022-09-12T04:14:56.356Z,12.95
2022-09-12T04:17:44.876Z,13.02
2022-09-12T04:20:34.655Z,12.91
2022-09-12T04:23:23.188Z,12.85
2022-09-12T04:26:13.611Z,12.78
2022-09-12T04:29:02.060Z,12.91
2022-09-12T04:31:50.540Z,12.74
2022-09-12T04:34:39.114Z,12.90
2022-09-12T04:37:28.922Z,12.87
2022-09-12T04:40:17.390Z,12.93
2022-09-12T04:43:08.458Z,12.95
2022-09-12T04:46:06.588Z,12.56
2022-09-12T04:48:57.114Z,12.91
2022-09-12T04:51:46.018Z,12.97
2022-09-12T04:54:35.848Z,13.05
2022-09-12T04:57:24.286Z,13.06
2022-09-12T05:00:14.588Z,13.16
2022-09-12T05:03:03.048Z,13.11
2022-09-12T05:05:55.861Z,13.13
2022-09-12T05:08:44.945Z,13.20
2022-09-12T05:12:02.484Z,13.25
2022-09-12T05:14:46.543Z,13.22
2022-09-12T05:17:35.390Z,13.17
2022-09-12T05:20:23.854Z,13.21
2022-09-12T05:23:12.287Z,13.22
2022-09-12T05:26:01.754Z,13.19
2022-09-12T05:28:52.201Z,13.35
2022-09-12T05:31:40.816Z,13.46
2022-09-12T05:34:29.287Z,13.51
2022-09-12T05:37:17.760Z,13.59
2022-09-12T05:40:08.556Z,13.54
2022-09-12T05:42:57.538Z,13.64
2022-09-12T05:45:47.436Z,13.70
2022-09-12T05:48:36.832Z,13.77
2022-09-12T05:51:26.819Z,13.82
2022-09-12T05:54:17.998Z,13.88
2022-09-12T05:57:06.491Z,14.04
2022-09-12T05:59:54.924Z,14.24
2022-09-12T06:02:44.682Z,14.32
2022-09-12T06:05:33.996Z,14.51
2022-09-12T06:08:22.456Z,14.73
2022-09-12T06:11:12.930Z,14.66
2022-09-12T06:14:01.889Z,15.21
2022-09-12T06:16:50.457Z,15.39
2022-09-12T06:19:40.290Z,15.44
2022-09-12T06:22:28.708Z,15.60
2022-09-12T06:25:17.233Z,15.72
2022-09-12T06:28:05.659Z,15.85
2022-09-12T06:30:54.422Z,16.07
2022-09-12T06:33:44.584Z,16.24
2022-09-12T06:36:36.219Z,16.46
2022-09-12T06:39:24.743Z,16.59
2022-09-12T06:42:14.856Z,16.98
2022-09-12T06:45:03.339Z,17.22
2022-09-12T06:47:51.772Z,17.33
2022-09-12T06:50:43.863Z,17.68
2022-09-12T06:53:34.699Z,17.68
2022-09-12T06:56:24.557Z,17.66
2022-09-12T06:59:13.038Z,17.83
2022-09-12T07:02:01.542Z,17.92
2022-09-12T07:04:51.725Z,18.06
2022-09-12T07:07:40.224Z,18.20
2022-09-12T07:10:30.905Z,18.07
2022-09-12T07:13:19.855Z,18.29
2022-09-12T07:16:08.665Z,18.46
2022-09-12T07:18:58.772Z,18.47
2022-09-12T07:21:47.229Z,18.67
2022-09-12T07:24:35.842Z,18.85
2022-09-12T07:27:25.677Z,19.16
2022-09-12T07:30:14.123Z,19.47
2022-09-12T07:33:02.617Z,19.51
2022-09-12T07:35:53.249Z,19.74
2022-09-12T07:38:42.379Z,19.84
2022-09-12T07:41:33.673Z,20.07
2022-09-12T07:44:23.523Z,20.39
2022-09-12T07:47:11.990Z,20.55
2022-09-12T07:50:00.608Z,20.55
2022-09-12T07:52:49.073Z,20.58
2022-09-12T07:55:37.528Z,20.68
2022-09-12T07:58:26.674Z,20.88
2022-09-12T08:01:17.834Z,21.09
2022-09-12T08:04:06.379Z,21.30
2022-09-12T08:06:54.839Z,21.44
2022-09-12T08:09:43.285Z,21.61
2022-09-12T08:12:32.220Z,21.76
2022-09-12T08:15:20.986Z,21.98
2022-09-12T08:18:11.313Z,22.34
2022-09-12T08:20:59.993Z,22.56
2022-09-12T08:23:49.060Z,22.78
2022-09-12T08:26:37.883Z,22.99
2022-09-12T08:29:26.353Z,23.22
2022-09-12T08:32:14.819Z,23.58
2022-09-12T08:35:05.324Z,23.71
2022-09-12T08:37:53.773Z,23.74
2022-09-12T08:40:48.496Z,23.83
2022-09-12T08:43:54.503Z,23.87
2022-09-12T08:46:57.243Z,23.84
2022-09-12T08:49:51.653Z,23.74
2022-09-12T08:52:47.194Z,23.94
2022-09-12T08:55:38.118Z,24.12
2022-09-12T08:58:28.323Z,24.34
2022-09-12T09:01:23.933Z,24.44
2022-09-12T09:04:25.662Z,24.43
2022-09-12T09:07:30.024Z,24.46
2022-09-12T09:10:27.337Z,24.53
2022-09-12T09:13:39.291Z,24.79
2022-09-12T09:16:32.482Z,24.88
2022-09-12T09:19:23.016Z,24.94
2022-09-12T09:22:14.001Z,24.90
2022-09-12T09:25:07.889Z,24.95
2022-09-12T09:28:02.189Z,24.98
2022-09-12T09:30:50.738Z,25.11
2022-09-12T09:33:39.379Z,24.91
2022-09-12T09:36:36.064Z,25.03
2022-09-12T09:39:31.627Z,25.02
2022-09-12T09:42:28.964Z,25.05
2022-09-12T09:45:21.896Z,25.05
2022-09-12T09:48:17.998Z,25.04
2022-09-12T09:51:09.212Z,25.14
2022-09-12T09:54:01.107Z,25.21
2022-09-12T09:56:49.827Z,25.20
2022-09-12T09:59:38.353Z,25.11
2022-09-12T10:02:28.303Z,25.31
2022-09-12T10:05:18.361Z,25.44
2022-09-12T10:08:08.447Z,25.54
2022-09-12T10:11:02.924Z,25.57
2022-09-12T10:13:56.824Z,25.48
2022-09-12T10:16:52.324Z,25.47
2022-09-12T10:19:42.118Z,25.40
2022-09-12T10:22:30.706Z,25.44
2022-09-12T10:25:20.250Z,25.57
2022-09-12T10:28:22.309Z,25.76
2022-09-12T10:31:15.165Z,26.03
2022-09-12T10:34:05.561Z,26.04
2022-09-12T10:36:59.491Z,26.07
2022-09-12T10:39:52.662Z,25.86
2022-09-12T10:42:49.935Z,25.76
2022-09-12T10:45:38.886Z,26.00
2022-09-12T10:48:30.167Z,25.99
2022-09-12T10:51:28.637Z,26.19
2022-09-12T10:54:19.856Z,26.07
2022-09-12T10:57:24.219Z,26.32
2022-09-12T11:00:18.109Z,26.38
2022-09-12T11:03:16.100Z,26.47
2022-09-12T11:06:04.856Z,26.39
2022-09-12T11:09:03.149Z,26.44
2022-09-12T11:12:02.412Z,26.54
2022-09-12T11:15:03.496Z,26.89
2022-09-12T11:17:55.778Z,26.92
2022-09-12T11:21:09.450Z,27.13
2022-09-12T11:24:13.752Z,27.14
2022-09-12T11:27:13.446Z,27.12
2022-09-12T11:30:06.703Z,27.32
2022-09-12T11:33:05.664Z,27.25
2022-09-12T11:35:57.317Z,27.48
2022-09-12T11:38:52.538Z,27.40
2022-09-12T11:41:42.724Z,27.54
2022-09-12T11:44:40.117Z,27.68
2022-09-12T11:47:30.063Z,27.43
2022-09-12T11:50:23.329Z,27.35
2022-09-12T11:53:16.575Z,27.68
2022-09-12T11:56:10.413Z,27.79
2022-09-12T11:59:02.747Z,27.07
2022-09-12T12:01:56.418Z,27.23
2022-09-12T12:05:03.365Z,27.27
2022-09-12T12:07:54.673Z,27.12
2022-09-12T12:10:45.498Z,27.27
2022-09-12T12:13:35.883Z,27.25
2022-09-12T12:16:26.903Z,27.46
2022-09-12T12:19:38.001Z,27.72
2022-09-12T12:22:26.974Z,27.59
2022-09-12T12:25:29.957Z,27.51
2022-09-12T12:28:52.414Z,27.53
2022-09-12T12:32:14.269Z,27.69
2022-09-12T12:35:40.468Z,27.77
2022-09-12T12:38:30.459Z,27.98
2022-09-12T12:41:43.879Z,27.96
2022-09-12T12:44:51.206Z,27.61
2022-09-12T12:47:42.804Z,27.62
2022-09-12T12:50:31.970Z,28.05
2022-09-12T12:53:24.789Z,28.18
2022-09-12T12:56:29.268Z,28.24
2022-09-12T12:59:21.278Z,28.18
2022-09-12T13:02:20.947Z,28.21
2022-09-12T13:05:18.685Z,28.33
2022-09-12T13:08:10.107Z,28.23
2022-09-12T13:11:02.958Z,28.46
2022-09-12T13:13:52.939Z,28.30
2022-09-12T13:16:54.392Z,28.06
2022-09-12T13:19:43.000Z,27.39
2022-09-12T13:22:41.693Z,27.41
2022-09-12T13:25:31.966Z,27.55
2022-09-12T13:28:21.863Z,27.54
2022-09-12T13:31:16.913Z,27.38
2022-09-12T13:34:06.813Z,27.49
2022-09-12T13:37:24.487Z,27.58
2022-09-12T13:40:25.017Z,27.76
2022-09-12T13:43:15.899Z,27.72
2022-09-12T13:46:08.057Z,28.08
2022-09-12T13:48:56.775Z,28.20
2022-09-12T13:51:45.312Z,28.26
2022-09-12T13:54:37.856Z,28.28
2022-09-12T13:57:31.648Z,28.31
2022-09-12T14:00:22.211Z,28.41
2022-09-12T14:03:44.639Z,28.29
2022-09-12T14:06:38.505Z,27.96
2022-09-12T14:09:29.086Z,27.86
2022-09-12T14:12:25.403Z,27.60
2022-09-12T14:15:18.566Z,27.65
2022-09-12T14:18:08.833Z,27.69
2022-09-12T14:21:03.680Z,27.58
2022-09-12T14:23:52.274Z,27.44
2022-09-12T14:26:41.738Z,27.44
2022-09-12T14:29:30.313Z,27.43
2022-09-12T14:32:24.015Z,27.56
2022-09-12T14:35:20.278Z,27.69
2022-09-12T14:38:20.509Z,27.73
2022-09-12T14:41:10.701Z,27.87
2022-09-12T14:44:01.170Z,27.60
2022-09-12T14:46:50.067Z,27.71
2022-09-12T14:49:39.047Z,27.07
2022-09-12T14:52:30.920Z,27.54
2022-09-12T14:55:29.498Z,27.47
2022-09-12T14:58:26.171Z,27.14
2022-09-12T15:01:27.826Z,26.59
2022-09-12T15:04:49.008Z,27.26
2022-09-12T15:07:40.382Z,27.28
2022-09-12T15:10:33.007Z,26.46
2022-09-12T15:13:23.586Z,27.26
2022-09-12T15:16:13.007Z,27.15
2022-09-12T15:19:01.869Z,26.42
2022-09-12T15:21:50.600Z,26.97
2022-09-12T15:24:39.896Z,26.85
2022-09-12T15:27:30.066Z,26.82
2022-09-12T15:30:19.002Z,26.80
2022-09-12T15:33:07.680Z,26.59
2022-09-12T15:35:56.254Z,26.69
2022-09-12T15:38:45.483Z,26.64
2022-09-12T15:41:36.798Z,26.45
2022-09-12T15:44:26.698Z,26.45
2022-09-12T15:47:18.118Z,26.43
2022-09-12T15:50:09.305Z,26.34
2022-09-12T15:52:59.190Z,26.22
2022-09-12T15:55:48.600Z,25.94
2022-09-12T15:58:49.999Z,26.09
2022-09-12T16:01:49.576Z,26.09
2022-09-12T16:04:38.178Z,26.11
2022-09-12T16:07:27.172Z,26.03
2022-09-12T16:10:17.273Z,26.08
2022-09-12T16:13:05.733Z,26.06
2022-09-12T16:15:57.635Z,26.13
2022-09-12T16:18:47.709Z,25.95
2022-09-12T16:21:36.443Z,25.80
2022-09-12T16:24:25.067Z,25.71
2022-09-12T16:27:14.008Z,25.64
2022-09-12T16:30:02.776Z,25.67
2022-09-12T16:32:53.308Z,25.65
2022-09-12T16:35:43.262Z,25.57
2022-09-12T16:38:32.077Z,25.27
2022-09-12T16:41:22.337Z,25.44
2022-09-12T16:44:10.989Z,25.32
2022-09-12T16:46:59.618Z,25.32
2022-09-12T16:49:48.309Z,25.26
2022-09-12T16:52:42.989Z,25.19
2022-09-12T16:55:32.554Z,25.21
2022-09-12T16:58:21.238Z,25.04
2022-09-12T17:01:11.536Z,25.07
2022-09-12T17:04:00.136Z,25.00
2022-09-12T17:06:48.845Z,24.23
2022-09-12T17:09:38.703Z,24.86
2022-09-12T17:12:27.477Z,24.84
2022-09-12T17:15:16.229Z,24.78
2022-09-12T17:18:04.822Z,24.73
2022-09-12T17:20:53.381Z,24.70
2022-09-12T17:23:42.231Z,24.59
2022-09-12T17:26:32.159Z,24.54
2022-09-12T17:29:21.110Z,24.42
2022-09-12T17:32:11.081Z,24.26
2022-09-12T17:35:01.045Z,24.08
2022-09-12T17:37:49.623Z,23.82
2022-09-12T17:40:58.505Z,23.55
2022-09-12T17:43:50.768Z,23.27
2022-09-12T17:46:40.216Z,22.94
2022-09-12T17:49:28.953Z,22.86
2022-09-12T17:52:17.433Z,22.68
2022-09-12T17:55:06.653Z,22.54
2022-09-12T17:57:55.096Z,22.43
2022-09-12T18:01:10.691Z,22.28
2022-09-12T18:04:00.543Z,22.06
2022-09-12T18:06:49.605Z,21.84
2022-09-12T18:09:39.126Z,21.73
2022-09-12T18:12:27.794Z,21.67
2022-09-12T18:15:16.463Z,20.87
2022-09-12T18:18:06.657Z,21.29
2022-09-12T18:20:59.221Z,21.23
2022-09-12T18:23:48.071Z,21.20
2022-09-12T18:26:36.930Z,21.10
2022-09-12T18:29:27.833Z,20.98
2022-09-12T18:32:16.287Z,20.86
2022-09-12T18:35:07.050Z,19.86
2022-09-12T18:37:55.779Z,20.60
2022-09-12T18:40:44.352Z,20.44
2022-09-12T18:43:33.248Z,20.40
2022-09-12T18:46:21.982Z,20.30
2022-09-12T18:49:10.605Z,20.15
2022-09-12T18:52:00.479Z,19.97
2022-09-12T18:54:48.929Z,19.94
2022-09-12T18:57:37.413Z,19.78
2022-09-12T19:00:25.962Z,19.69
2022-09-12T19:03:14.482Z,19.58
2022-09-12T19:06:07.645Z,19.49
2022-09-12T19:08:58.686Z,19.53
2022-09-12T19:11:49.837Z,19.27
2022-09-12T19:14:38.654Z,19.15
2022-09-12T19:17:27.272Z,19.09
2022-09-12T19:20:15.804Z,18.99
2022-09-12T19:23:04.267Z,18.80
2022-09-12T19:26:01.902Z,18.72
2022-09-12T19:28:50.845Z,18.45
2022-09-12T19:31:39.344Z,18.51
2022-09-12T19:34:28.057Z,18.27
2022-09-12T19:37:16.579Z,18.30
2022-09-12T19:40:06.857Z,18.30
2022-09-12T19:42:56.861Z,18.23
2022-09-12T19:45:48.230Z,18.20
2022-09-12T19:48:36.871Z,18.15
2022-09-12T19:51:25.428Z,18.13
2022-09-12T19:54:14.065Z,18.06
2022-09-12T19:57:02.743Z,18.04
2022-09-12T19:59:52.589Z,18.00
2022-09-12T20:02:41.138Z,17.92
2022-09-12T20:05:29.839Z,17.94
2022-09-12T20:08:18.445Z,17.82
2022-09-12T20:11:07.061Z,17.85
2022-09-12T20:13:55.510Z,17.86
2022-09-12T20:16:45.547Z,17.82
2022-09-12T20:19:34.222Z,17.70
2022-09-12T20:22:22.720Z,17.65
2022-09-12T20:25:11.172Z,17.53
2022-09-12T20:28:00.363Z,17.10
2022-09-12T20:30:49.029Z,17.37
2022-09-12T20:33:39.408Z,17.21
2022-09-12T20:36:27.878Z,17.15
2022-09-12T20:39:18.186Z,17.16
2022-09-12T20:42:07.184Z,17.10
2022-09-12T20:44:55.986Z,17.01
2022-09-12T20:47:44.456Z,17.13
2022-09-12T20:50:34.246Z,17.12
2022-09-12T20:53:22.665Z,17.12
2022-09-12T20:56:11.158Z,17.21
2022-09-12T20:59:00.207Z,17.12
2022-09-12T21:01:49.285Z,17.24
2022-09-12T21:04:37.851Z,17.24
2022-09-12T21:07:27.644Z,17.24
2022-09-12T21:10:16.259Z,17.17
2022-09-12T21:13:04.715Z,16.84
2022-09-12T21:15:59.442Z,17.00
2022-09-12T21:18:48.611Z,16.27
2022-09-12T21:21:37.573Z,16.86
2022-09-12T21:24:27.345Z,16.82
2022-09-12T21:27:15.820Z,16.94
2022-09-12T21:30:05.510Z,16.88
2022-09-12T21:32:54.430Z,16.81
2022-09-12T21:35:42.887Z,16.80
2022-09-12T21:38:31.646Z,16.87
2022-09-12T21:41:21.429Z,16.86
2022-09-12T21:44:10.351Z,16.93
2022-09-12T21:46:58.802Z,16.91
2022-09-12T21:49:47.390Z,16.91
2022-09-12T21:52:36.782Z,16.68
2022-09-12T21:55:27.156Z,16.57
2022-09-12T21:58:17.122Z,16.65
2022-09-12T22:01:08.452Z,16.60
2022-09-12T22:03:57.025Z,16.60
2022-09-12T22:06:45.488Z,16.62
2022-09-12T22:09:34.338Z,16.42
2022-09-12T22:12:23.337Z,16.62
2022-09-12T22:15:38.981Z,16.62
2022-09-12T22:18:21.684Z,16.55
2022-09-12T22:21:13.259Z,16.51
2022-09-12T22:24:19.124Z,16.45
2022-09-12T22:27:08.670Z,16.42
2022-09-12T22:29:57.105Z,16.23
2022-09-12T22:32:48.219Z,16.39
2022-09-12T22:35:36.757Z,16.37
2022-09-12T22:38:26.033Z,16.40
2022-09-12T22:41:14.479Z,16.41
2022-09-12T22:44:03.117Z,16.35
2022-09-12T22:46:51.885Z,16.41
2022-09-12T22:49:42.023Z,16.39
2022-09-12T22:52:30.464Z,16.28
2022-09-12T22:55:19.079Z,16.32
2022-09-12T22:58:07.542Z,16.16
2022-09-12T23:00:56.098Z,16.12
2022-09-12T23:03:44.888Z,16.02
2022-09-12T23:06:34.835Z,15.95
2022-09-12T23:09:23.571Z,15.97
2022-09-12T23:12:12.050Z,15.90
2022-09-12T23:40:21.238Z,15.32
2022-09-12T23:43:09.668Z,15.36
2022-09-12T23:45:58.419Z,15.33
2022-09-12T23:48:47.113Z,15.30
2022-09-12T23:51:36.088Z,15.08
2022-09-12T23:54:24.999Z,15.21
2022-09-12T23:57:14.821Z,15.25
